Time;durP1;ratioP1;P1;durP2;ratioP2;P2;SDS_P1;SDS_P2;PMS_P1;PMS_P2;Temp;Humidity;BMP_temperature;BMP_pressure;BME280_temperature;BME280_humidity;BME280_pressure;Samples;Min_cycle;Max_cycle;Signal;HPM_P1;HPM_P2
2020/12/10 00:01:56;;;;;;;67.82;30.35;;;-0.40;99.90;;;;;;5103235;28;20052;-83
2020/12/10 00:04:24;;;;;;;64.95;31.35;;;-0.40;99.90;;;;;;5102162;28;20075;-88
2020/12/10 00:06:50;;;;;;;63.15;30.00;;;-0.40;99.90;;;;;;5116459;23;20073;-75
2020/12/10 00:09:16;;;;;;;59.13;28.75;;;-0.50;99.90;;;;;;5105996;28;20079;-75
2020/12/10 00:11:43;;;;;;;59.60;28.17;;;-0.50;99.90;;;;;;5113082;28;20562;-76
2020/12/10 00:14:09;;;;;;;66.30;31.10;;;-0.50;99.90;;;;;;5114327;28;20130;-76
2020/12/10 00:16:35;;;;;;;65.72;30.13;;;-0.40;99.90;;;;;;5113994;28;20134;-75
2020/12/10 00:19:02;;;;;;;62.60;29.90;;;-0.40;99.90;;;;;;5113762;28;20135;-76
2020/12/10 00:21:29;;;;;;;62.20;30.50;;;-0.50;99.90;;;;;;5113815;28;20474;-75
2020/12/10 00:23:55;;;;;;;66.00;31.17;;;-0.50;99.90;;;;;;5100692;28;20498;-76
2020/12/10 00:26:22;;;;;;;59.90;29.33;;;-0.50;99.90;;;;;;5093693;28;20128;-77
2020/12/10 00:28:48;;;;;;;66.00;30.60;;;-0.50;99.90;;;;;;5093399;28;20143;-76
2020/12/10 00:31:14;;;;;;;66.57;30.55;;;-0.60;99.90;;;;;;5093156;28;20574;-75
2020/12/10 00:33:41;;;;;;;59.70;29.00;;;-0.60;99.90;;;;;;5093249;28;20126;-75
2020/12/10 00:36:08;;;;;;;62.50;29.30;;;-0.50;99.90;;;;;;5093559;28;20087;-76
2020/12/10 00:38:35;;;;;;;61.55;30.02;;;-0.50;99.90;;;;;;5093657;28;20144;-75
2020/12/10 00:41:01;;;;;;;59.78;28.02;;;-0.50;99.90;;;;;;5093233;28;20131;-73
2020/12/10 00:43:28;;;;;;;59.78;28.40;;;-0.50;99.90;;;;;;5093433;28;20044;-76
2020/12/10 00:45:55;;;;;;;60.13;29.08;;;-0.50;99.90;;;;;;5093106;28;20079;-78
2020/12/10 00:48:21;;;;;;;60.13;29.17;;;-0.50;99.90;;;;;;5093064;28;20113;-76
2020/12/10 00:50:47;;;;;;;61.97;29.42;;;-0.50;99.90;;;;;;5093187;28;20135;-75
2020/12/10 00:53:14;;;;;;;61.00;28.35;;;-0.40;99.90;;;;;;5092718;28;20127;-76
2020/12/10 00:55:41;;;;;;;60.85;28.05;;;-0.40;99.90;;;;;;5093061;28;20072;-75
2020/12/10 00:58:07;;;;;;;58.55;29.02;;;-0.40;99.90;;;;;;5093186;28;20500;-75
2020/12/10 01:00:34;;;;;;;53.30;26.70;;;-0.40;99.90;;;;;;5093305;28;20102;-76
2020/12/10 01:03:00;;;;;;;55.63;26.95;;;-0.30;99.90;;;;;;5092796;28;20131;-76
2020/12/10 01:05:26;;;;;;;58.63;25.80;;;-0.30;99.90;;;;;;5092667;28;20131;-74
2020/12/10 01:07:53;;;;;;;55.88;26.35;;;-0.30;99.90;;;;;;5093481;28;20092;-74
2020/12/10 01:10:19;;;;;;;58.05;27.08;;;-0.20;99.90;;;;;;5093339;28;20135;-73
2020/12/10 01:12:47;;;;;;;62.00;27.70;;;-0.20;99.90;;;;;;5092307;28;20134;-75
2020/12/10 01:15:13;;;;;;;55.75;25.92;;;-0.10;99.90;;;;;;5093167;28;20134;-75
2020/12/10 01:17:42;;;;;;;53.80;26.20;;;-0.10;99.90;;;;;;5093325;28;20106;-73
2020/12/10 01:20:09;;;;;;;54.60;25.25;;;-0.10;99.90;;;;;;5095121;28;20518;-73
2020/12/10 01:22:36;;;;;;;56.30;26.85;;;-0.10;99.90;;;;;;5099083;28;20444;-75
2020/12/10 01:25:02;;;;;;;53.65;24.75;;;-0.10;99.90;;;;;;5118366;28;20107;-74
2020/12/10 01:27:29;;;;;;;52.83;23.98;;;-0.10;99.90;;;;;;5118107;28;20099;-74
2020/12/10 01:29:56;;;;;;;52.08;24.65;;;0.00;99.90;;;;;;5117032;28;20083;-74
2020/12/10 01:32:22;;;;;;;54.47;24.73;;;-0.10;99.90;;;;;;5115832;28;20090;-74
2020/12/10 01:34:49;;;;;;;52.97;26.08;;;0.00;99.90;;;;;;5113226;28;20055;-74
2020/12/10 01:37:15;;;;;;;55.90;25.92;;;0.00;99.90;;;;;;5112857;28;20134;-74
2020/12/10 01:39:42;;;;;;;51.97;24.75;;;-0.10;99.90;;;;;;5112689;28;20130;-74
2020/12/10 01:42:08;;;;;;;49.97;24.05;;;-0.10;99.90;;;;;;5112152;28;20693;-74
2020/12/10 01:44:34;;;;;;;55.97;24.67;;;-0.10;99.90;;;;;;5112342;28;20087;-76
2020/12/10 01:47:02;;;;;;;53.45;23.25;;;-0.10;99.90;;;;;;5112335;28;20131;-75
2020/12/10 01:49:29;;;;;;;54.47;25.17;;;-0.10;99.90;;;;;;5112530;28;20135;-75
2020/12/10 01:51:55;;;;;;;50.35;23.48;;;-0.10;99.90;;;;;;5111838;28;20131;-76
2020/12/10 01:54:21;;;;;;;57.20;25.05;;;-0.20;99.90;;;;;;5112410;28;20086;-75
2020/12/10 01:56:48;;;;;;;56.53;25.00;;;-0.20;99.90;;;;;;5112228;28;20047;-75
2020/12/10 01:59:14;;;;;;;54.67;25.27;;;-0.30;99.90;;;;;;5112349;28;20555;-75
2020/12/10 02:01:40;;;;;;;57.45;25.20;;;-0.20;99.90;;;;;;5111978;28;20126;-74
2020/12/10 02:04:27;;;;;;;55.25;25.50;;;-0.30;99.90;;;;;;5112399;28;20048;-75
2020/12/10 02:06:53;;;;;;;57.35;26.40;;;-0.30;99.90;;;;;;5112255;28;20457;-75
2020/12/10 02:09:19;;;;;;;57.72;25.15;;;-0.40;99.90;;;;;;5112261;28;20078;-74
2020/12/10 02:11:46;;;;;;;58.70;25.10;;;-0.40;99.90;;;;;;5127612;22;20082;-83
2020/12/10 02:14:13;;;;;;;58.58;26.23;;;-0.40;99.90;;;;;;5110880;28;20127;-80
2020/12/10 02:16:39;;;;;;;54.33;24.33;;;-0.40;99.90;;;;;;5113554;28;20052;-80
2020/12/10 02:19:06;;;;;;;53.67;25.02;;;-0.40;99.90;;;;;;5116377;28;20135;-80
2020/12/10 02:21:33;;;;;;;55.20;24.58;;;-0.40;99.90;;;;;;5115961;28;20055;-79
2020/12/10 02:24:00;;;;;;;54.03;24.70;;;-0.40;99.90;;;;;;5117347;28;20165;-80
2020/12/10 02:26:27;;;;;;;60.10;26.80;;;-0.40;99.90;;;;;;5114994;28;20522;-80
2020/12/10 02:28:58;;;;;;;55.00;24.63;;;-0.40;99.90;;;;;;5116969;28;20075;-81
2020/12/10 02:31:26;;;;;;;53.05;24.90;;;-0.50;99.90;;;;;;5116722;28;20139;-79
2020/12/10 02:33:57;;;;;;;52.72;25.10;;;-0.50;99.90;;;;;;5119940;28;20082;-80
2020/12/10 02:36:24;;;;;;;57.15;23.90;;;-0.50;99.90;;;;;;5122488;28;20497;-81
2020/12/10 02:38:50;;;;;;;59.13;25.80;;;-0.50;99.90;;;;;;5121649;28;20070;-80
2020/12/10 02:41:17;;;;;;;56.78;25.40;;;-0.50;99.90;;;;;;5120539;28;20078;-80
2020/12/10 02:43:44;;;;;;;64.30;26.75;;;-0.50;99.90;;;;;;5120966;28;20079;-79
2020/12/10 02:46:10;;;;;;;62.97;26.23;;;-0.50;99.90;;;;;;5121672;27;20122;-80
2020/12/10 02:48:37;;;;;;;56.90;25.23;;;-0.50;99.90;;;;;;5121524;28;20136;-80
2020/12/10 02:51:04;;;;;;;58.42;25.35;;;-0.50;99.90;;;;;;5122150;28;20083;-79
2020/12/10 02:53:31;;;;;;;57.80;24.95;;;-0.50;99.90;;;;;;5121898;28;20086;-81
2020/12/10 02:55:58;;;;;;;58.65;25.60;;;-0.50;99.90;;;;;;5121783;28;20087;-80
2020/12/10 02:58:25;;;;;;;59.08;25.48;;;-0.50;99.90;;;;;;5122125;28;20094;-81
2020/12/10 03:00:52;;;;;;;57.55;25.17;;;-0.50;99.90;;;;;;5121075;28;20075;-81
2020/12/10 03:03:18;;;;;;;54.75;24.42;;;-0.60;99.90;;;;;;5122443;28;20044;-80
2020/12/10 03:05:45;;;;;;;58.80;26.02;;;-0.60;99.90;;;;;;5122350;28;20075;-79
2020/12/10 03:08:12;;;;;;;57.35;24.98;;;-0.60;99.90;;;;;;5122521;28;20108;-82
2020/12/10 03:10:38;;;;;;;57.75;24.92;;;-0.70;99.90;;;;;;5121650;28;20079;-80
2020/12/10 03:13:05;;;;;;;55.05;24.40;;;-0.60;99.90;;;;;;5122795;28;20107;-80
2020/12/10 03:15:32;;;;;;;59.25;26.00;;;-0.60;99.90;;;;;;5123741;28;20079;-81
2020/12/10 03:17:59;;;;;;;56.85;24.63;;;-0.60;99.90;;;;;;5120930;28;20047;-80
2020/12/10 03:20:26;;;;;;;59.53;25.65;;;-0.60;99.90;;;;;;5118974;28;20075;-80
2020/12/10 03:22:53;;;;;;;58.35;25.58;;;-0.60;99.90;;;;;;5114066;28;20086;-83
2020/12/10 03:25:19;;;;;;;56.58;23.92;;;-0.60;99.90;;;;;;5103194;28;20468;-83
2020/12/10 03:27:46;;;;;;;59.25;25.00;;;-0.50;99.90;;;;;;5102381;28;20061;-81
2020/12/10 03:30:12;;;;;;;55.38;24.13;;;-0.60;99.90;;;;;;5101496;28;20048;-81
2020/12/10 03:32:40;;;;;;;59.28;26.02;;;-0.60;99.90;;;;;;5095985;28;20135;-79
2020/12/10 03:35:06;;;;;;;56.88;24.48;;;-0.60;99.90;;;;;;5097008;28;20127;-80
2020/12/10 03:37:32;;;;;;;58.63;25.13;;;-0.60;99.90;;;;;;5110637;28;20214;-80
2020/12/10 03:39:59;;;;;;;60.53;26.50;;;-0.60;99.90;;;;;;5096446;28;20139;-78
2020/12/10 03:42:25;;;;;;;64.10;24.33;;;-0.60;99.90;;;;;;5093435;28;20356;-80
2020/12/10 03:44:52;;;;;;;54.67;25.23;;;-0.60;99.90;;;;;;5094260;28;20131;-80
2020/12/10 03:47:18;;;;;;;59.90;24.92;;;-0.60;99.90;;;;;;5094516;28;20084;-79
2020/12/10 03:49:45;;;;;;;63.00;26.92;;;-0.60;99.90;;;;;;5094377;28;20134;-79
2020/12/10 03:52:12;;;;;;;59.50;25.55;;;-0.60;99.90;;;;;;5093811;28;20131;-79
2020/12/10 03:54:39;;;;;;;62.80;25.60;;;-0.60;99.90;;;;;;5095538;28;20048;-82
2020/12/10 03:57:05;;;;;;;65.07;27.67;;;-0.60;99.90;;;;;;5097838;28;20062;-80
2020/12/10 03:59:31;;;;;;;65.00;26.77;;;-0.60;99.90;;;;;;5115469;28;20071;-80
2020/12/10 04:01:58;;;;;;;61.88;25.40;;;-0.60;99.90;;;;;;5116186;28;20131;-80
2020/12/10 04:04:24;;;;;;;61.80;26.95;;;-0.70;99.90;;;;;;5116336;28;20111;-80
2020/12/10 04:06:51;;;;;;;64.47;25.15;;;-0.70;99.90;;;;;;5116384;28;20071;-82
2020/12/10 04:09:18;;;;;;;62.35;25.25;;;-0.70;99.90;;;;;;5115584;28;20151;-80
2020/12/10 04:11:44;;;;;;;67.30;26.30;;;-0.70;99.90;;;;;;5115552;28;20455;-80
2020/12/10 04:14:11;;;;;;;65.82;26.83;;;-0.70;99.90;;;;;;5115325;28;20368;-80
2020/12/10 04:16:37;;;;;;;67.40;27.67;;;-0.70;99.90;;;;;;5114900;28;20047;-80
2020/12/10 04:19:04;;;;;;;64.88;26.48;;;-0.70;99.90;;;;;;5112596;28;20131;-82
2020/12/10 04:22:06;;;;;;;66.82;25.75;;;-0.70;99.90;;;;;;5116641;28;20083;-79
2020/12/10 04:24:33;;;;;;;65.43;26.23;;;-0.70;99.90;;;;;;5115122;28;20058;-80
2020/12/10 04:26:59;;;;;;;68.22;26.60;;;-0.70;99.90;;;;;;5113260;28;20372;-79
2020/12/10 04:29:25;;;;;;;63.28;26.02;;;-0.70;99.90;;;;;;5112501;28;20566;-79
2020/12/10 04:31:52;;;;;;;71.50;28.42;;;-0.70;99.90;;;;;;5113178;28;20198;-79
2020/12/10 04:34:18;;;;;;;65.40;26.45;;;-0.70;99.90;;;;;;5112770;28;20432;-79
2020/12/10 04:36:47;;;;;;;70.80;28.17;;;-0.70;99.90;;;;;;5113328;28;20043;-82
2020/12/10 04:39:14;;;;;;;69.45;26.58;;;-0.70;99.90;;;;;;5112233;28;20087;-79
2020/12/10 04:41:42;;;;;;;71.53;28.02;;;-0.60;99.90;;;;;;5112727;28;20063;-81
2020/12/10 04:44:08;;;;;;;66.90;25.05;;;-0.70;99.90;;;;;;5113143;28;20083;-80
2020/12/10 04:46:38;;;;;;;68.55;27.23;;;-0.60;99.90;;;;;;5113121;28;20082;-80
2020/12/10 04:49:05;;;;;;;70.82;28.33;;;-0.60;99.90;;;;;;5113099;28;20094;-79
2020/12/10 04:51:34;;;;;;;67.97;28.23;;;-0.60;99.90;;;;;;5113308;28;20132;-79
2020/12/10 04:54:02;;;;;;;76.05;28.60;;;-0.60;99.90;;;;;;5113464;28;20047;-79
2020/12/10 04:56:30;;;;;;;70.38;28.50;;;-0.60;99.90;;;;;;5113241;28;20051;-80
2020/12/10 04:58:56;;;;;;;71.95;28.95;;;-0.60;99.90;;;;;;5113770;28;20074;-78
2020/12/10 05:01:23;;;;;;;71.45;31.60;;;-0.60;99.90;;;;;;5117162;28;20126;-79
2020/12/10 05:03:49;;;;;;;69.97;29.55;;;-0.50;99.90;;;;;;5113864;28;20051;-79
2020/12/10 05:06:17;;;;;;;75.30;29.45;;;-0.60;99.90;;;;;;5114368;28;20083;-82
2020/12/10 05:08:45;;;;;;;75.10;30.55;;;-0.60;99.90;;;;;;5113455;28;20047;-80
2020/12/10 05:11:11;;;;;;;75.55;31.45;;;-0.60;99.90;;;;;;5113916;28;20142;-79
2020/12/10 05:13:39;;;;;;;68.53;29.48;;;-0.60;99.90;;;;;;5113293;28;20048;-81
2020/12/10 05:16:20;;;;;;;69.85;29.33;;;-0.60;99.90;;;;;;5114168;28;20083;-78
2020/12/10 05:18:47;;;;;;;71.75;29.35;;;-0.60;99.90;;;;;;5114069;28;20567;-79
2020/12/10 05:21:14;;;;;;;68.38;29.70;;;-0.60;99.90;;;;;;5114183;28;20090;-79
2020/12/10 05:23:43;;;;;;;74.57;30.02;;;-0.60;99.90;;;;;;5116759;28;20047;-77
2020/12/10 05:26:11;;;;;;;71.13;30.25;;;-0.60;99.90;;;;;;5118682;28;20052;-77
2020/12/10 05:28:44;;;;;;;79.35;30.25;;;-0.60;99.90;;;;;;5118310;28;20518;-77
2020/12/10 05:31:11;;;;;;;78.63;31.80;;;-0.60;99.90;;;;;;5120060;28;20088;-78
2020/12/10 05:33:52;;;;;;;71.72;29.42;;;-0.60;99.90;;;;;;5119102;28;20079;-79
2020/12/10 05:36:18;;;;;;;67.47;27.98;;;-0.70;99.90;;;;;;5121805;28;20065;-78
2020/12/10 05:39:03;;;;;;;70.22;29.52;;;-0.70;99.90;;;;;;5120198;28;20164;-78
2020/12/10 05:41:30;;;;;;;67.57;27.83;;;-0.70;99.90;;;;;;5117930;28;20062;-80
2020/12/10 05:44:13;;;;;;;72.43;29.40;;;-0.70;99.90;;;;;;5115993;28;20117;-80
2020/12/10 05:46:40;;;;;;;69.00;27.75;;;-0.60;99.90;;;;;;5113432;28;20429;-79
2020/12/10 05:49:07;;;;;;;72.63;29.95;;;-0.70;99.90;;;;;;5113797;28;20051;-81
2020/12/10 05:51:44;;;;;;;73.38;30.58;;;-0.70;99.90;;;;;;5112676;28;20126;-78
2020/12/10 05:54:11;;;;;;;76.03;30.73;;;-0.70;99.90;;;;;;5115701;28;20154;-77
2020/12/10 05:56:51;;;;;;;70.25;30.25;;;-0.70;99.90;;;;;;5115520;27;20082;-78
2020/12/10 05:59:19;;;;;;;73.32;29.45;;;-0.60;99.90;;;;;;5117039;28;20048;-78
2020/12/10 06:01:47;;;;;;;71.22;29.70;;;-0.60;99.90;;;;;;5118065;28;20074;-81
2020/12/10 06:04:14;;;;;;;67.18;29.13;;;-0.60;99.90;;;;;;5114334;28;20093;-78
2020/12/10 06:06:40;;;;;;;76.70;30.85;;;-0.60;99.90;;;;;;5117164;28;20082;-78
2020/12/10 06:09:08;;;;;;;76.72;30.95;;;-0.60;99.90;;;;;;5114701;28;20051;-79
2020/12/10 06:11:35;;;;;;;73.32;31.17;;;-0.60;99.90;;;;;;5113298;28;20448;-78
2020/12/10 06:14:07;;;;;;;73.47;30.40;;;-0.60;99.90;;;;;;5115217;28;20048;-78
2020/12/10 06:16:35;;;;;;;73.10;31.05;;;-0.60;99.90;;;;;;5129280;28;20081;-81
2020/12/10 06:19:03;;;;;;;74.45;30.73;;;-0.60;99.90;;;;;;5123969;28;20071;-80
2020/12/10 06:21:38;;;;;;;76.90;32.60;;;-0.70;99.90;;;;;;5115806;28;20047;-79
2020/12/10 06:24:33;;;;;;;77.93;31.55;;;-0.60;99.90;;;;;;5117391;28;20414;-79
2020/12/10 06:27:01;;;;;;;71.75;28.52;;;-0.70;99.90;;;;;;5117155;28;20131;-79
2020/12/10 06:29:28;;;;;;;85.88;32.70;;;-0.70;99.90;;;;;;5118801;28;20564;-79
2020/12/10 06:32:10;;;;;;;70.13;30.80;;;-0.70;99.90;;;;;;5113556;28;20055;-77
2020/12/10 06:34:41;;;;;;;59.93;25.00;;;-0.70;99.90;;;;;;5113465;28;20103;-79
2020/12/10 06:37:28;;;;;;;76.35;32.10;;;-0.70;99.90;;;;;;5115875;28;20131;-80
2020/12/10 06:39:57;;;;;;;73.43;30.92;;;-0.70;99.90;;;;;;5109686;28;20468;-80
2020/12/10 06:42:24;;;;;;;75.43;31.98;;;-0.70;99.90;;;;;;5113592;28;20048;-79
2020/12/10 06:44:51;;;;;;;74.13;31.98;;;-0.70;99.90;;;;;;5112876;28;20286;-78
2020/12/10 06:47:19;;;;;;;76.28;32.33;;;-0.80;99.90;;;;;;5115879;28;20406;-80
2020/12/10 06:49:45;;;;;;;78.70;32.42;;;-0.70;99.90;;;;;;5116617;28;20103;-82
2020/12/10 06:52:17;;;;;;;82.50;32.33;;;-0.70;99.90;;;;;;5114163;28;20538;-80
2020/12/10 06:55:06;;;;;;;77.22;30.98;;;-0.70;99.90;;;;;;5113164;28;20101;-80
2020/12/10 06:57:58;;;;;;;73.45;31.23;;;-0.60;99.90;;;;;;5113964;28;20120;-79
2020/12/10 07:00:43;;;;;;;73.00;31.15;;;-0.70;99.90;;;;;;5112897;28;20058;-79
2020/12/10 07:03:19;;;;;;;75.32;31.33;;;-0.60;99.90;;;;;;5113117;28;20104;-82
2020/12/10 07:05:45;;;;;;;69.45;30.50;;;-0.60;99.90;;;;;;5116333;28;20130;-80
2020/12/10 07:08:14;;;;;;;67.05;30.15;;;-0.50;99.90;;;;;;5117009;28;20090;-80
2020/12/10 07:10:43;;;;;;;69.20;30.77;;;-0.50;99.90;;;;;;5117432;28;20414;-81
2020/12/10 07:13:10;;;;;;;69.55;29.95;;;-0.50;99.90;;;;;;5116344;28;20048;-80
2020/12/10 07:15:37;;;;;;;68.55;30.42;;;-0.50;99.90;;;;;;5116521;28;20075;-79
2020/12/10 07:18:05;;;;;;;80.13;30.80;;;-0.50;99.90;;;;;;5116689;28;20082;-80
2020/12/10 07:20:34;;;;;;;94.22;34.15;;;-0.50;99.90;;;;;;5118774;28;20044;-80
2020/12/10 07:23:01;;;;;;;93.63;32.25;;;-0.40;99.90;;;;;;5117060;28;20047;-80
2020/12/10 07:25:29;;;;;;;71.32;31.05;;;-0.50;99.90;;;;;;5116858;28;20054;-79
2020/12/10 07:27:56;;;;;;;68.95;31.75;;;-0.50;99.90;;;;;;5125667;28;20044;-82
2020/12/10 07:30:24;;;;;;;63.75;31.20;;;-0.50;99.90;;;;;;5121018;28;20043;-78
2020/12/10 07:32:54;;;;;;;70.47;30.23;;;-0.50;99.90;;;;;;5114070;28;20051;-78
2020/12/10 07:35:34;;;;;;;72.00;30.90;;;-0.40;99.90;;;;;;5117139;28;20051;-77
2020/12/10 07:38:09;;;;;;;71.07;31.95;;;-0.40;99.90;;;;;;5116993;28;20165;-79
2020/12/10 07:40:35;;;;;;;77.05;34.33;;;-0.40;99.90;;;;;;5115242;28;20048;-80
2020/12/10 07:43:06;;;;;;;78.03;35.90;;;-0.50;99.90;;;;;;5114593;28;20168;-82
2020/12/10 07:45:33;;;;;;;69.65;35.42;;;-0.40;99.90;;;;;;5115314;28;20043;-79
2020/12/10 07:48:01;;;;;;;76.30;34.92;;;-0.40;99.90;;;;;;5115148;28;20062;-79
2020/12/10 07:50:28;;;;;;;68.75;33.72;;;-0.30;99.90;;;;;;5115730;28;20048;-79
2020/12/10 07:52:56;;;;;;;74.15;33.38;;;-0.20;99.90;;;;;;5115350;28;20364;-79
2020/12/10 07:55:24;;;;;;;71.47;33.25;;;-0.10;99.90;;;;;;5115809;28;20120;-80
2020/12/10 07:57:57;;;;;;;79.85;33.80;;;-0.10;99.90;;;;;;5115623;27;20134;-82
2020/12/10 08:00:25;;;;;;;70.25;32.08;;;0.00;99.90;;;;;;5115212;28;20065;-80
2020/12/10 08:03:02;;;;;;;57.67;29.40;;;0.00;99.90;;;;;;5115308;28;20089;-79
2020/12/10 08:05:29;;;;;;;57.08;29.02;;;0.10;99.90;;;;;;5115169;28;20101;-81
2020/12/10 08:07:57;;;;;;;70.15;31.10;;;0.10;99.90;;;;;;5114952;28;20635;-80
2020/12/10 08:10:24;;;;;;;56.72;29.73;;;0.10;99.90;;;;;;5115028;28;20200;-80
2020/12/10 08:13:13;;;;;;;61.55;28.67;;;0.10;99.90;;;;;;5130056;22;20071;-79
2020/12/10 08:19:11;;;;;;;56.83;28.30;;;0.00;99.90;;;;;;5074247;28;20512;-77
2020/12/10 08:21:37;;;;;;;53.95;27.50;;;0.00;99.90;;;;;;5075402;28;20049;-79
2020/12/10 08:24:04;;;;;;;58.70;29.08;;;0.00;99.90;;;;;;5076831;28;20076;-77
2020/12/10 08:26:31;;;;;;;62.30;30.13;;;0.00;99.90;;;;;;5074427;28;20131;-77
2020/12/10 08:28:57;;;;;;;52.67;25.50;;;0.00;99.90;;;;;;5074791;28;20052;-78
2020/12/10 08:31:25;;;;;;;52.95;28.48;;;0.00;99.90;;;;;;5073640;28;20127;-78
2020/12/10 08:33:52;;;;;;;54.25;26.95;;;0.00;99.90;;;;;;5074533;28;20076;-77
2020/12/10 08:36:31;;;;;;;59.88;30.45;;;0.10;99.90;;;;;;5074746;28;20056;-78
2020/12/10 08:38:59;;;;;;;57.13;26.10;;;0.10;99.90;;;;;;5074739;28;20082;-77
2020/12/10 08:41:29;;;;;;;53.03;26.63;;;0.10;99.90;;;;;;5074447;28;20424;-77
2020/12/10 08:43:57;;;;;;;59.50;28.27;;;0.20;99.90;;;;;;5074461;28;20132;-77
2020/12/10 08:46:24;;;;;;;56.35;28.88;;;0.30;99.90;;;;;;5072941;28;20052;-76
2020/12/10 08:48:52;;;;;;;50.63;26.35;;;0.30;99.90;;;;;;5072885;28;20092;-80
2020/12/10 08:51:18;;;;;;;58.97;27.85;;;0.30;99.90;;;;;;5072668;28;20539;-76
2020/12/10 08:53:49;;;;;;;60.78;28.70;;;0.30;99.90;;;;;;5072835;28;20132;-77
2020/12/10 08:56:24;;;;;;;55.28;26.73;;;0.40;99.90;;;;;;5073558;28;20496;-77
2020/12/10 08:58:51;;;;;;;55.33;26.05;;;0.30;99.90;;;;;;5079342;28;20044;-75
2020/12/10 09:01:17;;;;;;;51.60;25.48;;;0.40;99.90;;;;;;5092698;28;20090;-77
2020/12/10 09:03:44;;;;;;;51.85;26.52;;;0.40;99.90;;;;;;5085580;28;20130;-77
2020/12/10 09:06:11;;;;;;;47.67;24.92;;;0.50;99.90;;;;;;5079353;28;20048;-77
2020/12/10 09:08:37;;;;;;;51.45;26.88;;;0.50;99.90;;;;;;5073876;28;20064;-77
2020/12/10 09:11:03;;;;;;;48.15;24.75;;;0.50;99.90;;;;;;5073113;28;20136;-77
2020/12/10 09:13:30;;;;;;;47.53;24.05;;;0.60;99.90;;;;;;5075219;28;20088;-78
2020/12/10 09:15:57;;;;;;;43.85;23.40;;;0.60;99.90;;;;;;5076190;28;20064;-76
2020/12/10 09:18:24;;;;;;;46.03;23.25;;;0.60;99.90;;;;;;5090477;28;20052;-77
2020/12/10 09:20:50;;;;;;;44.53;23.63;;;0.70;99.90;;;;;;5095746;28;20117;-77
2020/12/10 09:23:17;;;;;;;44.38;21.80;;;0.70;99.90;;;;;;5095931;28;20067;-76
2020/12/10 09:25:43;;;;;;;38.40;20.50;;;0.80;99.90;;;;;;5096098;28;20068;-78
2020/12/10 09:28:10;;;;;;;39.60;21.17;;;0.80;99.90;;;;;;5098529;28;20411;-77
2020/12/10 09:30:37;;;;;;;40.67;20.02;;;0.90;99.90;;;;;;5096267;28;20048;-79
2020/12/10 09:33:05;;;;;;;39.10;19.58;;;1.00;99.90;;;;;;5097093;28;20055;-77
2020/12/10 09:35:32;;;;;;;38.50;21.17;;;1.00;99.90;;;;;;5093781;28;20086;-77
2020/12/10 09:38:01;;;;;;;38.35;20.77;;;1.00;99.90;;;;;;5093062;28;20047;-77
2020/12/10 09:40:28;;;;;;;35.58;18.98;;;1.10;99.90;;;;;;5095076;28;20056;-77
2020/12/10 09:42:55;;;;;;;35.63;18.65;;;1.10;99.90;;;;;;5095887;28;20058;-78
2020/12/10 09:45:21;;;;;;;40.60;20.75;;;1.20;99.90;;;;;;5096038;28;20040;-75
2020/12/10 09:47:48;;;;;;;37.85;18.23;;;1.20;99.90;;;;;;5096659;28;20048;-78
2020/12/10 09:50:21;;;;;;;39.45;18.92;;;1.30;99.90;;;;;;5095233;28;20048;-77
2020/12/10 09:53:03;;;;;;;36.53;19.65;;;1.30;99.90;;;;;;5092602;28;20056;-77
2020/12/10 09:56:09;;;;;;;36.00;19.52;;;1.30;99.90;;;;;;5092281;28;20135;-77
2020/12/10 09:58:35;;;;;;;40.08;21.10;;;1.40;99.90;;;;;;5093614;28;20055;-79
2020/12/10 10:01:01;;;;;;;41.38;20.13;;;1.30;99.90;;;;;;5094987;28;20515;-77
2020/12/10 10:03:28;;;;;;;41.28;20.80;;;1.40;99.90;;;;;;5095601;28;20527;-80
2020/12/10 10:05:55;;;;;;;31.98;18.02;;;1.40;99.90;;;;;;5096416;28;20044;-77
2020/12/10 10:08:24;;;;;;;34.45;19.50;;;1.40;99.90;;;;;;5096943;28;20220;-77
2020/12/10 10:10:51;;;;;;;36.80;21.05;;;1.50;99.90;;;;;;5097873;28;20048;-77
2020/12/10 10:13:17;;;;;;;37.38;19.17;;;1.60;99.90;;;;;;5096495;28;20543;-78
2020/12/10 10:15:45;;;;;;;32.80;19.45;;;1.60;99.90;;;;;;5097295;28;20052;-79
2020/12/10 10:18:11;;;;;;;39.00;20.00;;;1.60;99.90;;;;;;5098197;28;20048;-77
2020/12/10 10:20:39;;;;;;;33.95;20.40;;;1.60;99.90;;;;;;5098336;28;20079;-78
2020/12/10 10:23:06;;;;;;;34.42;19.40;;;1.60;99.90;;;;;;5096798;28;20108;-78
2020/12/10 10:25:32;;;;;;;36.67;19.85;;;1.80;99.90;;;;;;5093236;28;20119;-79
2020/12/10 10:27:59;;;;;;;39.38;21.08;;;1.80;99.90;;;;;;5085973;28;20087;-77
2020/12/10 10:30:26;;;;;;;34.72;19.55;;;1.90;99.90;;;;;;5087554;28;20485;-78
2020/12/10 10:32:52;;;;;;;34.08;19.40;;;2.00;99.90;;;;;;5083722;28;20582;-77
2020/12/10 10:35:19;;;;;;;35.63;18.88;;;2.00;99.90;;;;;;5078190;28;20040;-77
2020/12/10 10:37:46;;;;;;;29.98;17.50;;;2.00;99.90;;;;;;5076467;28;20052;-77
2020/12/10 10:40:14;;;;;;;31.13;17.92;;;2.10;99.90;;;;;;5076292;28;20510;-77
2020/12/10 10:42:41;;;;;;;34.63;19.23;;;2.10;99.90;;;;;;5075966;28;20075;-80
2020/12/10 10:45:09;;;;;;;33.03;19.02;;;2.10;99.90;;;;;;5076904;28;20052;-79
2020/12/10 10:47:35;;;;;;;30.40;16.65;;;2.10;99.90;;;;;;5078996;28;20048;-78
2020/12/10 10:50:02;;;;;;;29.85;17.00;;;2.20;99.90;;;;;;5078693;28;20121;-79
2020/12/10 10:52:28;;;;;;;30.70;16.95;;;2.20;99.90;;;;;;5079598;28;20048;-78
2020/12/10 10:54:54;;;;;;;33.17;18.35;;;2.20;99.90;;;;;;5094881;28;20040;-77
2020/12/10 10:57:22;;;;;;;28.50;15.63;;;2.30;99.90;;;;;;5101078;28;20079;-76
2020/12/10 10:59:48;;;;;;;26.85;16.52;;;2.40;99.90;;;;;;5100472;28;20079;-78
2020/12/10 11:02:15;;;;;;;27.42;15.98;;;2.40;99.90;;;;;;5101708;28;20056;-77
2020/12/10 11:04:41;;;;;;;26.45;16.42;;;2.40;99.90;;;;;;5106262;28;20047;-78
2020/12/10 11:07:08;;;;;;;25.75;16.08;;;2.40;99.90;;;;;;5106103;28;20052;-78
2020/12/10 11:09:34;;;;;;;30.63;17.40;;;2.40;99.90;;;;;;5107070;28;20048;-79
2020/12/10 11:12:00;;;;;;;25.00;15.10;;;2.40;99.90;;;;;;5108436;28;20055;-79
2020/12/10 11:14:28;;;;;;;27.80;17.13;;;2.40;99.90;;;;;;5102438;28;20090;-78
2020/12/10 11:16:56;;;;;;;27.13;16.30;;;2.50;99.90;;;;;;5094662;28;20049;-76
2020/12/10 11:19:23;;;;;;;25.00;15.32;;;2.50;99.90;;;;;;5090380;28;20053;-76
2020/12/10 11:21:54;;;;;;;23.10;15.25;;;2.50;99.90;;;;;;5095017;28;20055;-74
2020/12/10 11:24:20;;;;;;;24.45;15.38;;;2.50;99.90;;;;;;5088815;28;20184;-75
2020/12/10 11:26:51;;;;;;;25.08;14.68;;;2.40;99.90;;;;;;5087020;28;20102;-76
2020/12/10 11:29:18;;;;;;;27.27;14.73;;;2.40;99.90;;;;;;5091547;28;20055;-76
2020/12/10 11:31:45;;;;;;;26.42;14.60;;;2.50;99.90;;;;;;5102557;28;20044;-77
2020/12/10 11:34:11;;;;;;;24.15;14.70;;;2.50;99.90;;;;;;5101989;28;20495;-79
2020/12/10 11:36:38;;;;;;;24.80;14.88;;;2.60;99.90;;;;;;5102390;28;20048;-81
2020/12/10 11:39:05;;;;;;;29.15;14.38;;;2.60;99.90;;;;;;5101757;28;20106;-78
2020/12/10 11:41:31;;;;;;;23.80;15.23;;;2.70;99.90;;;;;;5101274;28;20428;-79
2020/12/10 11:43:57;;;;;;;26.77;16.10;;;2.70;99.90;;;;;;5100765;28;20091;-79
2020/12/10 11:46:24;;;;;;;26.38;15.20;;;2.80;99.90;;;;;;5102181;28;20055;-79
2020/12/10 11:48:51;;;;;;;26.30;15.00;;;2.90;99.90;;;;;;5099739;28;20101;-77
2020/12/10 11:51:18;;;;;;;24.08;15.55;;;2.90;99.90;;;;;;5099707;28;20059;-77
2020/12/10 11:53:45;;;;;;;24.42;15.10;;;2.90;99.90;;;;;;5100063;28;20098;-78
2020/12/10 11:56:12;;;;;;;25.38;15.18;;;2.90;99.90;;;;;;5100133;28;20472;-79
2020/12/10 11:58:38;;;;;;;28.40;15.95;;;3.00;99.90;;;;;;5100862;28;20563;-79
2020/12/10 12:01:04;;;;;;;31.55;17.20;;;3.00;99.90;;;;;;5101746;28;20087;-79
2020/12/10 12:03:31;;;;;;;26.63;15.65;;;3.10;99.90;;;;;;5102341;28;20079;-79
2020/12/10 12:06:01;;;;;;;27.60;16.95;;;3.10;99.90;;;;;;5101057;28;20098;-75
2020/12/10 12:08:28;;;;;;;27.73;16.42;;;3.00;99.90;;;;;;5102207;28;20047;-79
2020/12/10 12:10:55;;;;;;;26.63;16.58;;;3.00;99.90;;;;;;5098532;28;20059;-78
2020/12/10 12:13:22;;;;;;;26.92;16.15;;;3.00;99.90;;;;;;5095243;28;20101;-78
2020/12/10 12:15:48;;;;;;;28.35;16.02;;;3.00;99.90;;;;;;5098194;28;20455;-78
2020/12/10 12:18:16;;;;;;;27.52;16.27;;;3.00;99.90;;;;;;5099885;28;20122;-77
2020/12/10 12:20:43;;;;;;;23.23;15.00;;;2.90;99.90;;;;;;5100100;28;20089;-79
2020/12/10 12:23:10;;;;;;;26.83;15.38;;;2.80;99.90;;;;;;5100699;28;20086;-80
2020/12/10 12:25:37;;;;;;;24.88;15.50;;;2.80;99.90;;;;;;5102269;28;20405;-77
2020/12/10 12:28:03;;;;;;;25.55;14.25;;;2.90;99.90;;;;;;5105127;28;20511;-78
2020/12/10 12:30:33;;;;;;;33.97;15.57;;;2.90;99.90;;;;;;5104069;28;20048;-78
2020/12/10 12:33:00;;;;;;;32.30;15.68;;;2.80;99.90;;;;;;5099401;28;20079;-80
2020/12/10 12:35:27;;;;;;;26.75;15.02;;;2.90;99.90;;;;;;5099754;28;20082;-79
2020/12/10 12:37:53;;;;;;;25.55;15.10;;;2.80;99.90;;;;;;5099005;28;20079;-80
2020/12/10 12:40:20;;;;;;;25.48;14.38;;;2.80;99.90;;;;;;5098151;28;20131;-79